createdAt,value
2023-05-15T00:01:24.530Z,4.55
2023-05-15T00:03:51.986Z,4.50
2023-05-15T00:06:18.811Z,4.82
2023-05-15T00:08:45.454Z,4.90
2023-05-15T00:11:12.335Z,4.75
2023-05-15T00:13:39.132Z,4.88
2023-05-15T00:16:09.243Z,4.10
2023-05-15T00:18:36.005Z,4.70
2023-05-15T00:21:02.877Z,5.07
2023-05-15T00:23:29.378Z,4.85
2023-05-15T00:25:55.928Z,4.03
2023-05-15T00:28:22.561Z,4.70
2023-05-15T00:30:49.161Z,4.32
2023-05-15T00:33:17.978Z,4.72
2023-05-15T00:35:44.553Z,5.00
2023-05-15T00:38:11.228Z,4.63
2023-05-15T00:40:39.035Z,4.50
2023-05-15T00:43:06.584Z,4.95
2023-05-15T00:45:34.418Z,5.22
2023-05-15T00:48:01.627Z,4.50
2023-05-15T00:50:29.131Z,4.78
2023-05-15T00:52:55.804Z,4.57
2023-05-15T00:55:22.611Z,4.57
2023-05-15T00:57:50.185Z,5.35
2023-05-15T01:00:18.437Z,4.75
2023-05-15T01:02:46.160Z,5.03
2023-05-15T01:05:13.395Z,5.10
2023-05-15T01:08:02.282Z,5.35
2023-05-15T01:10:29.309Z,4.70
2023-05-15T01:12:57.171Z,6.03
2023-05-15T01:15:23.949Z,5.20
2023-05-15T01:17:51.799Z,5.35
2023-05-15T01:20:20.090Z,5.60
2023-05-15T01:23:15.718Z,5.73
2023-05-15T01:25:57.621Z,5.97
2023-05-15T01:28:35.751Z,5.28
2023-05-15T01:31:10.536Z,5.97
2023-05-15T01:33:43.028Z,5.75
2023-05-15T01:36:09.499Z,5.40
2023-05-15T01:38:44.679Z,5.75
2023-05-15T01:41:23.807Z,5.65
2023-05-15T01:43:59.120Z,5.75
2023-05-15T01:46:31.381Z,6.07
2023-05-15T01:49:00.471Z,6.00
2023-05-15T01:51:28.745Z,6.20
2023-05-15T01:53:58.356Z,5.70
2023-05-15T01:56:27.107Z,6.20
2023-05-15T01:58:55.046Z,6.10
2023-05-15T02:01:23.855Z,5.65
2023-05-15T02:03:51.704Z,5.75
2023-05-15T02:06:18.934Z,5.65
2023-05-15T02:08:47.094Z,5.95
2023-05-15T02:11:14.667Z,6.25
2023-05-15T02:13:42.094Z,5.50
2023-05-15T02:16:08.735Z,5.95
2023-05-15T02:18:35.733Z,5.70
2023-05-15T02:21:02.911Z,6.03
2023-05-15T02:23:29.603Z,6.30
2023-05-15T02:26:23.496Z,6.15
2023-05-15T02:29:27.069Z,6.03
2023-05-15T02:32:18.840Z,6.82
2023-05-15T02:35:07.422Z,5.63
2023-05-15T02:37:37.053Z,6.75
2023-05-15T02:40:06.812Z,6.70
2023-05-15T02:42:34.585Z,6.85
2023-05-15T02:45:02.648Z,6.68
2023-05-15T02:47:30.499Z,6.40
2023-05-15T02:49:57.478Z,6.38
2023-05-15T02:52:24.931Z,6.18
2023-05-15T02:54:51.710Z,6.13
2023-05-15T02:57:18.221Z,6.78
2023-05-15T02:59:45.385Z,6.18
2023-05-15T03:02:11.926Z,6.70
2023-05-15T03:04:38.441Z,6.13
2023-05-15T03:07:05.050Z,6.38
2023-05-15T03:09:31.652Z,6.40
2023-05-15T03:11:58.171Z,6.60
2023-05-15T03:14:24.763Z,6.25
2023-05-15T03:16:51.478Z,6.78
2023-05-15T03:19:18.736Z,6.70
2023-05-15T03:21:45.311Z,6.22
2023-05-15T03:24:11.851Z,6.82
2023-05-15T03:26:40.302Z,6.65
2023-05-15T03:29:06.848Z,6.73
2023-05-15T03:31:33.701Z,6.85
2023-05-15T03:34:00.350Z,6.53
2023-05-15T03:36:27.000Z,7.10
2023-05-15T03:38:53.526Z,6.75
2023-05-15T03:41:21.316Z,6.50
2023-05-15T03:43:47.861Z,6.43
2023-05-15T03:46:15.443Z,6.60
2023-05-15T03:48:42.196Z,6.80
2023-05-15T03:51:08.849Z,6.65
2023-05-15T03:53:35.518Z,6.47
2023-05-15T03:56:03.325Z,6.70
2023-05-15T03:58:31.939Z,7.60
2023-05-15T04:00:58.879Z,7.53
2023-05-15T04:03:25.578Z,7.53
2023-05-15T04:05:52.305Z,8.13
2023-05-15T04:08:18.829Z,7.82
2023-05-15T04:10:45.651Z,7.55
2023-05-15T04:13:12.289Z,7.60
2023-05-15T04:15:40.578Z,8.27
2023-05-15T04:18:07.261Z,7.90
2023-05-15T04:20:34.056Z,8.13
2023-05-15T04:23:00.778Z,7.85
2023-05-15T04:25:27.991Z,7.82
2023-05-15T04:27:54.637Z,8.68
2023-05-15T04:30:21.505Z,7.90
2023-05-15T04:32:49.352Z,7.43
2023-05-15T04:35:16.232Z,7.00
2023-05-15T04:37:43.461Z,7.80
2023-05-15T04:40:10.518Z,7.20
2023-05-15T04:42:39.091Z,7.68
2023-05-15T04:45:07.199Z,7.60
2023-05-15T04:47:34.155Z,7.53
2023-05-15T04:50:00.857Z,7.20
2023-05-15T04:52:27.483Z,7.13
2023-05-15T04:54:55.588Z,8.07
2023-05-15T04:57:22.295Z,7.47
2023-05-15T04:59:49.030Z,8.23
2023-05-15T05:02:15.844Z,8.23
2023-05-15T05:04:43.653Z,7.30
2023-05-15T05:07:10.258Z,7.28
2023-05-15T05:09:42.002Z,7.75
2023-05-15T05:12:09.309Z,7.45
2023-05-15T05:14:36.497Z,7.72
2023-05-15T05:17:03.998Z,10.02
2023-05-15T05:19:30.767Z,8.93
2023-05-15T05:21:58.374Z,7.93
2023-05-15T05:24:25.117Z,8.07
2023-05-15T05:26:51.709Z,7.53
2023-05-15T05:29:18.355Z,7.63
2023-05-15T05:31:46.903Z,7.03
2023-05-15T05:34:13.767Z,7.05
2023-05-15T05:36:40.672Z,7.43
2023-05-15T05:39:07.304Z,7.05
2023-05-15T05:41:34.759Z,6.90
2023-05-15T05:44:01.463Z,6.32
2023-05-15T05:46:28.279Z,6.57
2023-05-15T05:48:54.857Z,7.03
2023-05-15T05:51:23.774Z,6.90
2023-05-15T05:53:50.399Z,6.70
2023-05-15T05:56:17.064Z,6.55
2023-05-15T05:58:43.785Z,7.20
2023-05-15T06:01:10.777Z,6.07
2023-05-15T06:03:38.895Z,7.50
2023-05-15T06:06:05.972Z,6.15
2023-05-15T06:08:32.521Z,6.30
2023-05-15T06:10:59.128Z,7.40
2023-05-15T06:13:25.745Z,6.78
2023-05-15T06:15:52.335Z,6.18
2023-05-15T06:18:18.943Z,6.45
2023-05-15T06:20:46.773Z,6.35
2023-05-15T06:23:13.321Z,6.15
2023-05-15T06:25:40.047Z,6.47
2023-05-15T06:28:06.637Z,11.00
2023-05-15T06:30:33.233Z,6.90
2023-05-15T06:33:00.014Z,7.13
2023-05-15T06:35:27.501Z,6.28
2023-05-15T06:37:54.573Z,6.50
2023-05-15T06:40:21.956Z,5.47
2023-05-15T06:42:48.534Z,5.63
2023-05-15T06:45:15.249Z,5.53
2023-05-15T06:47:41.823Z,5.45
2023-05-15T06:50:09.129Z,4.97
2023-05-15T06:52:35.880Z,4.88
2023-05-15T06:55:02.465Z,4.88
2023-05-15T06:57:29.017Z,3.92
2023-05-15T06:59:55.653Z,4.95
2023-05-15T07:02:22.243Z,5.65
2023-05-15T07:04:48.934Z,4.32
2023-05-15T07:07:15.493Z,4.20
2023-05-15T07:09:42.202Z,3.60
2023-05-15T07:12:09.028Z,4.13
2023-05-15T07:14:35.609Z,4.00
2023-05-15T07:17:02.365Z,3.58
2023-05-15T07:19:28.959Z,3.50
2023-05-15T07:21:55.852Z,3.90
2023-05-15T07:24:22.420Z,3.22
2023-05-15T07:26:58.339Z,3.55
2023-05-15T07:29:25.981Z,4.10
2023-05-15T07:31:52.751Z,3.53
2023-05-15T07:34:19.414Z,3.80
2023-05-15T07:36:45.970Z,3.28
2023-05-15T07:39:13.087Z,4.03
2023-05-15T07:41:39.645Z,3.70
2023-05-15T07:44:06.457Z,4.35
2023-05-15T07:46:35.032Z,3.75
2023-05-15T07:49:01.902Z,3.35
2023-05-15T07:51:29.089Z,3.50
2023-05-15T07:53:55.683Z,3.88
2023-05-15T07:56:22.258Z,4.05
2023-05-15T07:58:49.060Z,3.40
2023-05-15T08:01:16.070Z,3.40
2023-05-15T08:03:42.785Z,5.15
2023-05-15T08:06:09.467Z,4.13
2023-05-15T08:08:36.403Z,3.65
2023-05-15T08:11:02.984Z,3.30
2023-05-15T08:13:29.509Z,4.18
2023-05-15T08:15:56.530Z,2.97
2023-05-15T08:18:23.357Z,3.42
2023-05-15T08:20:49.995Z,2.85
2023-05-15T08:23:16.512Z,3.33
2023-05-15T08:25:43.104Z,2.72
2023-05-15T08:28:10.647Z,2.95
2023-05-15T08:30:37.256Z,2.45
2023-05-15T08:33:03.997Z,2.90
2023-05-15T08:35:30.661Z,2.53
2023-05-15T08:37:58.500Z,2.50
2023-05-15T08:40:38.260Z,2.90
2023-05-15T08:43:17.404Z,2.70
2023-05-15T08:45:44.063Z,2.10
2023-05-15T08:48:14.440Z,2.40
2023-05-15T08:50:41.794Z,2.30
2023-05-15T08:53:08.617Z,2.25
2023-05-15T08:55:35.201Z,1.92
2023-05-15T08:58:02.394Z,2.50
2023-05-15T09:00:29.970Z,2.30
2023-05-15T09:03:00.486Z,2.33
2023-05-15T09:05:28.558Z,2.40
2023-05-15T09:07:56.487Z,2.15
2023-05-15T09:10:23.411Z,2.08
2023-05-15T09:12:52.410Z,2.40
2023-05-15T09:15:25.084Z,2.35
2023-05-15T09:17:52.560Z,1.90
2023-05-15T09:20:27.577Z,2.35
2023-05-15T09:22:55.493Z,2.20
2023-05-15T09:25:34.420Z,2.70
2023-05-15T09:28:01.358Z,2.13
2023-05-15T09:30:28.170Z,2.00
2023-05-15T09:33:00.964Z,2.60
2023-05-15T09:35:31.118Z,2.38
2023-05-15T09:38:00.288Z,2.40
2023-05-15T09:40:31.921Z,2.60
2023-05-15T09:42:59.569Z,2.63
2023-05-15T09:45:27.395Z,2.60
2023-05-15T09:47:54.310Z,2.80
2023-05-15T09:50:33.541Z,2.75
2023-05-15T09:53:00.418Z,2.67
2023-05-15T09:55:30.353Z,2.83
2023-05-15T09:58:09.331Z,2.50
2023-05-15T10:00:48.673Z,2.63
2023-05-15T10:03:17.297Z,2.60
2023-05-15T10:05:44.484Z,2.28
2023-05-15T10:08:12.198Z,2.30
2023-05-15T10:10:38.877Z,2.10
2023-05-15T10:13:08.384Z,2.22
2023-05-15T10:15:35.674Z,2.30
2023-05-15T10:18:04.820Z,3.25
2023-05-15T10:20:33.044Z,3.60
2023-05-15T10:23:01.610Z,3.80
2023-05-15T10:28:14.517Z,3.70
2023-05-15T10:30:43.147Z,4.72
2023-05-15T10:33:11.526Z,4.13
2023-05-15T10:35:39.778Z,4.57
2023-05-15T10:38:06.799Z,4.68
2023-05-15T10:40:37.218Z,6.13
2023-05-15T10:43:04.781Z,3.95
2023-05-15T10:45:32.313Z,3.88
2023-05-15T10:47:59.486Z,3.90
2023-05-15T10:50:27.252Z,3.50
2023-05-15T10:52:55.686Z,3.88
2023-05-15T10:55:22.994Z,3.75
2023-05-15T10:57:49.673Z,3.72
2023-05-15T11:00:22.115Z,4.80
2023-05-15T11:02:50.563Z,5.15
2023-05-15T11:05:17.316Z,5.78
2023-05-15T11:07:43.922Z,6.63
2023-05-15T11:10:28.898Z,6.43
2023-05-15T11:12:57.337Z,5.57
2023-05-15T11:18:04.769Z,5.18
2023-05-15T11:20:35.076Z,4.88
2023-05-15T11:23:02.344Z,4.72
2023-05-15T11:25:31.456Z,4.80
2023-05-15T11:27:58.300Z,4.82
2023-05-15T11:30:40.323Z,5.22
2023-05-15T11:33:10.317Z,5.90
2023-05-15T11:35:39.892Z,4.90
2023-05-15T11:38:17.618Z,5.45
2023-05-15T11:40:52.882Z,6.18
2023-05-15T11:43:35.877Z,5.97
2023-05-15T11:46:07.583Z,7.13
2023-05-15T11:48:39.412Z,6.88
2023-05-15T11:51:12.432Z,6.07
2023-05-15T11:53:40.239Z,5.35
2023-05-15T11:56:07.163Z,4.90
2023-05-15T11:58:33.716Z,5.95
2023-05-15T12:01:00.367Z,5.68
2023-05-15T12:03:33.023Z,6.80
2023-05-15T12:06:02.374Z,6.57
2023-05-15T12:08:33.196Z,7.10
2023-05-15T12:11:00.974Z,6.93
2023-05-15T12:13:27.772Z,7.22
2023-05-15T12:15:55.597Z,7.32
2023-05-15T12:18:22.414Z,6.63
2023-05-15T12:20:52.494Z,7.30
2023-05-15T12:23:21.699Z,9.27
2023-05-15T12:25:51.501Z,9.00
2023-05-15T12:28:18.453Z,8.98
2023-05-15T12:30:45.234Z,9.57
2023-05-15T12:33:12.233Z,9.27
2023-05-15T12:35:53.242Z,9.38
2023-05-15T12:38:22.185Z,9.55
2023-05-15T12:43:20.395Z,8.98
2023-05-15T12:45:47.012Z,8.55
2023-05-15T12:48:15.221Z,8.20
2023-05-15T12:50:45.205Z,7.40
2023-05-15T12:53:15.722Z,5.65
2023-05-15T12:55:44.703Z,4.32
2023-05-15T12:58:12.758Z,4.15
2023-05-15T13:00:42.018Z,4.27
2023-05-15T13:03:11.240Z,4.05
2023-05-15T13:05:39.396Z,4.78
2023-05-15T13:08:09.542Z,4.05
2023-05-15T13:10:37.910Z,3.28
2023-05-15T13:13:04.712Z,2.80
2023-05-15T13:15:37.804Z,3.20
2023-05-15T13:18:23.727Z,3.92
2023-05-15T13:20:54.087Z,4.15
2023-05-15T13:23:24.138Z,3.90
2023-05-15T13:25:50.814Z,3.95
2023-05-15T13:28:17.316Z,4.35
2023-05-15T13:30:43.938Z,4.00
2023-05-15T13:33:12.424Z,4.13
2023-05-15T13:35:40.152Z,3.60
2023-05-15T13:38:09.473Z,3.90
2023-05-15T13:40:37.410Z,3.70
2023-05-15T13:43:04.176Z,3.50
2023-05-15T13:45:30.948Z,3.42
2023-05-15T13:47:57.594Z,4.07
2023-05-15T13:50:24.619Z,3.70
2023-05-15T13:52:51.493Z,3.63
2023-05-15T13:55:19.770Z,4.28
2023-05-15T13:57:48.124Z,3.30
2023-05-15T14:00:15.270Z,4.07
2023-05-15T14:02:43.390Z,4.30
2023-05-15T14:05:12.345Z,4.38
2023-05-15T14:07:39.857Z,5.15
2023-05-15T14:10:06.993Z,5.07
2023-05-15T14:12:34.071Z,5.57
2023-05-15T14:15:01.217Z,5.70
2023-05-15T14:17:28.314Z,5.85
2023-05-15T14:19:54.998Z,5.95
2023-05-15T14:22:24.590Z,5.75
2023-05-15T14:24:52.319Z,6.72
2023-05-15T14:27:19.273Z,6.38
2023-05-15T14:29:46.142Z,6.95
2023-05-15T14:32:12.804Z,5.75
2023-05-15T14:34:39.363Z,6.03
2023-05-15T14:37:05.849Z,5.13
2023-05-15T14:39:32.889Z,4.70
2023-05-15T14:41:59.429Z,5.25
2023-05-15T14:44:26.173Z,5.63
2023-05-15T14:47:10.168Z,5.13
2023-05-15T14:49:37.557Z,5.10
2023-05-15T14:52:06.696Z,5.80
2023-05-15T14:54:33.313Z,6.75
2023-05-15T14:56:59.863Z,7.22
2023-05-15T14:59:27.667Z,7.82
2023-05-15T15:01:54.437Z,8.65
2023-05-15T15:04:21.349Z,9.63
2023-05-15T15:06:48.280Z,8.85
2023-05-15T15:09:14.999Z,8.73
2023-05-15T15:11:42.940Z,9.20
2023-05-15T15:14:09.441Z,9.65
2023-05-15T15:16:36.099Z,9.88
2023-05-15T15:19:02.759Z,10.02
2023-05-15T15:21:29.400Z,10.23
2023-05-15T15:23:57.364Z,8.43
2023-05-15T15:26:23.959Z,7.95
2023-05-15T15:28:50.465Z,7.82
2023-05-15T15:31:19.011Z,8.75
2023-05-15T15:33:45.597Z,8.40
2023-05-15T15:36:12.152Z,9.25
2023-05-15T15:38:41.640Z,10.45
2023-05-15T15:41:08.808Z,10.40
2023-05-15T15:43:35.407Z,10.85
2023-05-15T15:46:02.040Z,11.73
2023-05-15T15:48:28.702Z,12.27
2023-05-15T15:50:55.454Z,12.88
2023-05-15T15:53:22.211Z,12.25
2023-05-15T15:55:49.051Z,13.02
2023-05-15T15:58:16.610Z,12.48
2023-05-15T16:00:43.187Z,13.00
2023-05-15T16:03:10.194Z,13.10
2023-05-15T16:05:36.790Z,13.10
2023-05-15T16:08:03.353Z,13.77
2023-05-15T16:10:30.108Z,12.80
2023-05-15T16:12:56.953Z,12.65
2023-05-15T16:15:24.213Z,13.00
2023-05-15T16:17:53.580Z,13.35
2023-05-15T16:20:20.987Z,12.32
2023-05-15T16:22:47.662Z,11.90
2023-05-15T16:25:14.247Z,12.00
2023-05-15T16:27:40.826Z,11.75
2023-05-15T16:30:09.098Z,11.45
2023-05-15T16:32:36.328Z,11.67
2023-05-15T16:35:03.505Z,10.82
2023-05-15T16:37:30.117Z,15.63
2023-05-15T16:39:56.803Z,10.68
2023-05-15T16:42:23.373Z,10.02
2023-05-15T16:44:49.901Z,9.75
2023-05-15T16:47:16.586Z,10.00
2023-05-15T16:49:44.693Z,9.88
2023-05-15T16:54:41.458Z,9.05
2023-05-15T16:59:34.603Z,9.05
2023-05-15T17:02:01.366Z,9.10
2023-05-15T17:04:28.698Z,9.77
2023-05-15T17:06:56.861Z,9.23
2023-05-15T17:09:23.384Z,9.38
2023-05-15T17:11:49.901Z,9.95
2023-05-15T17:14:16.500Z,8.73
2023-05-15T17:16:43.185Z,8.32
2023-05-15T17:19:09.893Z,7.80
2023-05-15T17:21:37.324Z,8.13
2023-05-15T17:24:04.110Z,7.82
2023-05-15T17:26:30.650Z,7.50
2023-05-15T17:28:57.168Z,7.38
2023-05-15T17:31:23.750Z,7.05
2023-05-15T17:33:50.301Z,7.25
2023-05-15T17:36:16.881Z,7.35
2023-05-15T17:38:43.428Z,6.70
2023-05-15T17:41:09.959Z,7.47
2023-05-15T17:43:36.502Z,8.07
2023-05-15T17:46:03.574Z,7.65
2023-05-15T17:48:30.143Z,8.30
2023-05-15T17:50:56.904Z,7.05
2023-05-15T17:53:24.282Z,6.57
2023-05-15T17:55:51.087Z,5.97
2023-05-15T17:58:17.636Z,7.25
2023-05-15T18:00:44.273Z,6.65
2023-05-15T18:03:10.951Z,54.75
2023-05-15T18:05:37.662Z,7.38
2023-05-15T18:08:04.663Z,7.18
2023-05-15T18:10:31.424Z,7.70
2023-05-15T18:12:58.198Z,7.10
2023-05-15T18:15:25.182Z,6.88
2023-05-15T18:17:52.038Z,7.53
2023-05-15T18:20:19.376Z,6.57
2023-05-15T18:22:46.045Z,7.43
2023-05-15T18:25:12.613Z,7.07
2023-05-15T18:27:39.248Z,7.22
2023-05-15T18:30:06.649Z,6.93
2023-05-15T18:32:33.787Z,6.95
2023-05-15T18:35:00.587Z,6.90
2023-05-15T18:37:27.206Z,6.80
2023-05-15T18:39:57.038Z,7.55
2023-05-15T18:42:25.182Z,6.90
2023-05-15T18:44:52.089Z,6.60
2023-05-15T18:47:18.976Z,6.95
2023-05-15T18:49:45.840Z,7.68
2023-05-15T18:52:12.744Z,6.53
2023-05-15T18:54:41.259Z,6.30
2023-05-15T18:57:08.306Z,11.05
2023-05-15T18:59:35.029Z,7.20
2023-05-15T19:02:01.611Z,6.85
2023-05-15T19:04:28.197Z,6.75
2023-05-15T19:06:54.760Z,6.43
2023-05-15T19:09:21.322Z,7.60
2023-05-15T19:11:49.654Z,7.00
2023-05-15T19:14:17.796Z,6.90
2023-05-15T19:16:46.017Z,7.45
2023-05-15T19:19:13.114Z,7.40
2023-05-15T19:21:39.994Z,7.55
2023-05-15T19:24:06.698Z,7.68
2023-05-15T19:26:33.794Z,7.32
2023-05-15T19:29:00.417Z,7.72
2023-05-15T19:31:31.558Z,7.60
2023-05-15T19:33:59.492Z,8.02
2023-05-15T19:36:26.407Z,8.48
2023-05-15T19:38:53.064Z,8.18
2023-05-15T19:41:19.666Z,8.65
2023-05-15T19:43:46.965Z,8.90
2023-05-15T19:46:13.901Z,8.55
2023-05-15T19:48:40.602Z,9.07
2023-05-15T19:51:07.301Z,8.60
2023-05-15T19:53:34.278Z,8.52
2023-05-15T19:56:00.972Z,8.60
2023-05-15T19:58:27.582Z,8.85
2023-05-15T20:00:54.601Z,8.82
2023-05-15T20:03:22.139Z,8.65
2023-05-15T20:05:48.920Z,12.75
2023-05-15T20:08:16.985Z,22.25
2023-05-15T20:10:44.382Z,11.32
2023-05-15T20:13:11.551Z,8.75
2023-05-15T20:15:40.080Z,9.02
2023-05-15T20:18:07.387Z,8.57
2023-05-15T20:20:34.696Z,8.88
2023-05-15T20:23:01.311Z,9.25
2023-05-15T20:25:28.936Z,9.55
2023-05-15T20:27:57.746Z,9.65
2023-05-15T20:30:24.732Z,10.50
2023-05-15T20:32:51.772Z,9.00
2023-05-15T20:35:18.449Z,9.38
2023-05-15T20:37:45.673Z,10.05
2023-05-15T20:40:12.925Z,9.65
2023-05-15T20:42:39.996Z,10.25
2023-05-15T20:45:08.514Z,10.27
2023-05-15T20:47:35.702Z,10.45
2023-05-15T20:50:02.447Z,11.02
2023-05-15T20:52:29.024Z,10.43
2023-05-15T20:54:55.565Z,10.18
2023-05-15T20:57:22.165Z,11.23
2023-05-15T20:59:48.718Z,10.95
2023-05-15T21:02:16.107Z,11.18
2023-05-15T21:04:42.909Z,11.70
2023-05-15T21:07:09.538Z,13.05
2023-05-15T21:09:36.088Z,12.10
2023-05-15T21:12:03.901Z,11.55
2023-05-15T21:14:30.624Z,12.90
2023-05-15T21:16:57.846Z,12.88
2023-05-15T21:19:24.508Z,13.45
2023-05-15T21:21:51.175Z,14.00
2023-05-15T21:24:18.064Z,14.55
2023-05-15T21:26:45.186Z,15.27
2023-05-15T21:29:11.799Z,17.33
2023-05-15T21:31:38.542Z,18.58
2023-05-15T21:34:05.470Z,18.63
2023-05-15T21:36:32.083Z,19.08
2023-05-15T21:38:58.611Z,20.58
2023-05-15T21:41:26.038Z,20.30
2023-05-15T21:43:52.730Z,19.98
2023-05-15T21:46:19.316Z,21.70
2023-05-15T21:48:48.133Z,21.73
2023-05-15T21:51:14.702Z,21.85
2023-05-15T21:53:41.375Z,23.45
2023-05-15T21:56:08.346Z,23.73
2023-05-15T21:58:35.000Z,23.05
2023-05-15T22:01:01.592Z,22.60
2023-05-15T22:03:28.163Z,23.40
2023-05-15T22:05:54.785Z,22.75
2023-05-15T22:08:21.538Z,23.25
2023-05-15T22:10:49.050Z,23.05
2023-05-15T22:13:15.789Z,23.65
2023-05-15T22:15:43.204Z,23.77
2023-05-15T22:18:09.876Z,23.65
2023-05-15T22:20:36.639Z,24.30
2023-05-15T22:23:03.173Z,24.23
2023-05-15T22:25:29.806Z,25.33
2023-05-15T22:27:56.351Z,23.10
2023-05-15T22:30:22.956Z,26.08
2023-05-15T22:32:49.551Z,25.02
2023-05-15T22:35:16.225Z,25.40
2023-05-15T22:37:42.942Z,25.40
2023-05-15T22:40:10.865Z,23.48
2023-05-15T22:42:37.647Z,24.85
2023-05-15T22:45:05.798Z,24.77
2023-05-15T22:47:32.842Z,24.20
2023-05-15T22:49:59.593Z,24.10
2023-05-15T22:52:26.278Z,24.80
2023-05-15T22:54:52.911Z,25.10
2023-05-15T22:57:19.538Z,24.40
2023-05-15T22:59:46.661Z,24.15
2023-05-15T23:02:13.260Z,25.00
2023-05-15T23:04:39.851Z,24.05
2023-05-15T23:07:06.762Z,24.90
2023-05-15T23:09:33.359Z,24.88
2023-05-15T23:12:00.509Z,27.27
2023-05-15T23:14:27.062Z,26.00
2023-05-15T23:16:53.663Z,27.48
2023-05-15T23:19:20.304Z,27.70
2023-05-15T23:21:47.164Z,27.83
2023-05-15T23:24:13.778Z,25.02
2023-05-15T23:26:40.271Z,27.08
2023-05-15T23:29:06.845Z,27.20
2023-05-15T23:31:33.599Z,29.05
2023-05-15T23:34:00.320Z,26.65
2023-05-15T23:36:26.883Z,27.85
2023-05-15T23:38:53.408Z,28.95
2023-05-15T23:41:19.986Z,28.95
2023-05-15T23:43:46.660Z,28.35
2023-05-15T23:46:13.227Z,30.00
2023-05-15T23:48:39.879Z,28.05
2023-05-15T23:51:06.470Z,28.88
2023-05-15T23:53:33.011Z,29.23
2023-05-15T23:55:59.577Z,29.38
2023-05-15T23:58:26.149Z,30.15
